createdAt,value
2018-09-05T00:00:43.492Z,11.40
2018-09-05T00:01:47.100Z,12.55
2018-09-05T00:02:50.778Z,11.90
2018-09-05T00:03:54.338Z,10.55
2018-09-05T00:04:58.051Z,11.70
2018-09-05T00:06:01.589Z,11.03
2018-09-05T00:07:05.136Z,10.28
2018-09-05T00:08:08.648Z,10.88
2018-09-05T00:09:12.317Z,10.65
2018-09-05T00:10:15.791Z,11.33
2018-09-05T00:11:19.290Z,11.08
2018-09-05T00:12:22.807Z,11.70
2018-09-05T00:13:26.372Z,11.08
2018-09-05T00:14:29.921Z,11.20
2018-09-05T00:15:33.481Z,11.33
2018-09-05T00:16:37.110Z,11.15
2018-09-05T00:17:40.681Z,11.43
2018-09-05T00:18:44.174Z,11.43
2018-09-05T00:19:47.715Z,11.40
2018-09-05T00:20:51.266Z,11.93
2018-09-05T00:21:54.970Z,11.40
2018-09-05T00:22:58.527Z,13.70
2018-09-05T00:24:02.080Z,12.13
2018-09-05T00:25:05.670Z,12.43
2018-09-05T00:26:09.199Z,12.03
2018-09-05T00:27:12.751Z,11.70
2018-09-05T00:28:16.290Z,11.70
2018-09-05T00:29:19.808Z,12.20
2018-09-05T00:30:23.318Z,11.20
2018-09-05T00:31:26.826Z,12.28
2018-09-05T00:32:30.402Z,12.85
2018-09-05T00:33:33.994Z,12.68
2018-09-05T00:34:37.465Z,12.75
2018-09-05T00:35:40.954Z,13.60
2018-09-05T00:36:44.497Z,13.75
2018-09-05T00:37:48.034Z,12.60
2018-09-05T00:38:51.545Z,12.70
2018-09-05T00:39:55.017Z,11.63
2018-09-05T00:40:58.517Z,13.15
2018-09-05T00:42:02.031Z,13.00
2018-09-05T00:43:05.964Z,12.33
2018-09-05T00:44:09.469Z,13.18
2018-09-05T00:45:13.009Z,12.88
2018-09-05T00:46:16.835Z,13.58
2018-09-05T00:47:20.353Z,13.88
2018-09-05T00:48:23.886Z,13.40
2018-09-05T00:49:27.372Z,12.93
2018-09-05T00:50:30.902Z,12.73
2018-09-05T00:51:34.412Z,13.22
2018-09-05T00:52:37.886Z,13.22
2018-09-05T00:53:41.387Z,13.78
2018-09-05T00:54:44.946Z,13.15
2018-09-05T00:55:48.456Z,13.43
2018-09-05T00:56:51.917Z,12.88
2018-09-05T00:57:55.573Z,12.78
2018-09-05T00:58:59.202Z,13.32
2018-09-05T01:00:02.717Z,12.88
2018-09-05T01:01:06.224Z,12.73
2018-09-05T01:02:09.733Z,13.35
2018-09-05T01:03:13.269Z,13.93
2018-09-05T01:04:16.805Z,12.98
2018-09-05T01:05:20.321Z,12.98
2018-09-05T01:06:23.822Z,13.20
2018-09-05T01:07:28.498Z,13.25
2018-09-05T01:08:32.077Z,12.55
2018-09-05T01:09:35.622Z,12.45
2018-09-05T01:10:39.111Z,13.10
2018-09-05T01:11:42.675Z,13.05
2018-09-05T01:12:46.364Z,12.07
2018-09-05T01:13:49.921Z,12.75
2018-09-05T01:14:54.249Z,12.18
2018-09-05T01:15:57.744Z,11.80
2018-09-05T01:17:01.305Z,12.95
2018-09-05T01:18:05.067Z,12.63
2018-09-05T01:19:08.653Z,13.05
2018-09-05T01:20:12.192Z,12.37
2018-09-05T01:21:15.753Z,13.10
2018-09-05T01:22:19.302Z,13.30
2018-09-05T01:23:22.810Z,12.90
2018-09-05T01:24:26.402Z,11.83
2018-09-05T01:25:29.860Z,13.38
2018-09-05T01:26:33.466Z,12.70
2018-09-05T01:27:37.172Z,12.20
2018-09-05T01:28:40.733Z,12.65
2018-09-05T01:29:44.265Z,12.18
2018-09-05T01:30:47.732Z,11.70
2018-09-05T01:31:51.289Z,11.88
2018-09-05T01:32:55.127Z,13.13
2018-09-05T01:33:58.660Z,11.78
2018-09-05T01:35:02.269Z,12.78
2018-09-05T01:36:11.821Z,12.85
2018-09-05T01:37:15.391Z,12.00
2018-09-05T01:38:18.954Z,12.20
2018-09-05T01:39:22.514Z,12.10
2018-09-05T01:40:25.971Z,12.70
2018-09-05T01:41:29.500Z,12.88
2018-09-05T01:42:33.107Z,12.07
2018-09-05T01:43:36.653Z,12.40
2018-09-05T01:44:40.383Z,13.48
2018-09-05T01:45:43.853Z,13.45
2018-09-05T01:46:47.399Z,14.23
2018-09-05T01:47:50.957Z,12.53
2018-09-05T01:48:54.501Z,11.40
2018-09-05T01:49:58.097Z,13.38
2018-09-05T01:51:01.626Z,13.45
2018-09-05T01:52:05.200Z,12.73
2018-09-05T01:53:08.666Z,13.25
2018-09-05T01:54:12.214Z,11.75
2018-09-05T01:55:15.770Z,12.20
2018-09-05T01:56:19.261Z,11.25
2018-09-05T01:57:22.867Z,13.03
2018-09-05T01:58:26.442Z,12.50
2018-09-05T01:59:29.997Z,12.70
2018-09-05T02:00:34.028Z,12.53
2018-09-05T02:01:37.545Z,12.73
2018-09-05T02:02:41.082Z,12.20
2018-09-05T02:03:44.648Z,14.05
2018-09-05T02:04:48.169Z,12.13
2018-09-05T02:05:51.410Z,13.15
2018-09-05T02:06:54.647Z,13.55
2018-09-05T02:07:58.218Z,12.90
2018-09-05T02:09:01.426Z,12.70
2018-09-05T02:10:04.936Z,12.73
2018-09-05T02:11:08.141Z,12.90
2018-09-05T02:12:11.485Z,13.00
2018-09-05T02:13:14.684Z,13.15
2018-09-05T02:14:17.907Z,12.73
2018-09-05T02:15:21.097Z,12.70
2018-09-05T02:16:24.317Z,12.95
2018-09-05T02:17:27.544Z,14.07
2018-09-05T02:18:30.746Z,12.82
2018-09-05T02:19:33.952Z,13.70
2018-09-05T02:20:37.161Z,12.78
2018-09-05T02:21:40.412Z,13.20
2018-09-05T02:22:43.717Z,14.00
2018-09-05T02:23:46.903Z,12.03
2018-09-05T02:24:50.112Z,12.73
2018-09-05T02:25:53.305Z,12.40
2018-09-05T02:26:56.478Z,12.98
2018-09-05T02:27:59.708Z,12.75
2018-09-05T02:29:02.945Z,13.30
2018-09-05T02:30:06.237Z,12.90
2018-09-05T02:31:09.427Z,13.85
2018-09-05T02:32:12.662Z,12.85
2018-09-05T02:33:15.939Z,14.58
2018-09-05T02:34:19.137Z,12.58
2018-09-05T02:35:22.332Z,13.10
2018-09-05T02:36:25.556Z,13.60
2018-09-05T02:37:28.788Z,12.28
2018-09-05T02:38:32.030Z,13.50
2018-09-05T02:39:35.258Z,13.20
2018-09-05T02:40:38.503Z,12.90
2018-09-05T02:41:41.724Z,13.05
2018-09-05T02:42:44.966Z,13.15
2018-09-05T02:43:53.550Z,13.75
2018-09-05T02:44:56.807Z,13.10
2018-09-05T02:45:59.976Z,13.28
2018-09-05T02:47:03.169Z,13.28
2018-09-05T02:48:06.493Z,13.62
2018-09-05T02:49:10.027Z,14.83
2018-09-05T02:50:13.225Z,13.75
2018-09-05T02:51:16.419Z,14.13
2018-09-05T02:52:19.598Z,13.95
2018-09-05T02:53:22.849Z,13.15
2018-09-05T02:54:26.222Z,13.00
2018-09-05T02:55:34.821Z,12.55
2018-09-05T02:56:38.037Z,13.85
2018-09-05T02:57:41.250Z,13.93
2018-09-05T02:58:44.440Z,14.60
2018-09-05T02:59:47.668Z,14.15
2018-09-05T03:00:50.924Z,13.68
2018-09-05T03:01:54.109Z,14.43
2018-09-05T03:02:57.342Z,14.70
2018-09-05T03:04:00.571Z,12.95
2018-09-05T03:05:03.923Z,13.72
2018-09-05T03:06:07.216Z,12.60
2018-09-05T03:07:10.468Z,13.25
2018-09-05T03:08:13.643Z,13.18
2018-09-05T03:09:16.851Z,14.68
2018-09-05T03:10:20.143Z,13.60
2018-09-05T03:11:23.422Z,12.85
2018-09-05T03:12:26.607Z,14.03
2018-09-05T03:13:29.773Z,14.73
2018-09-05T03:14:33.029Z,13.80
2018-09-05T03:15:36.256Z,14.20
2018-09-05T03:16:39.445Z,14.98
2018-09-05T03:17:42.581Z,13.80
2018-09-05T03:18:45.763Z,14.20
2018-09-05T03:19:48.905Z,13.43
2018-09-05T03:20:52.123Z,13.43
2018-09-05T03:21:55.390Z,13.32
2018-09-05T03:22:58.540Z,14.50
2018-09-05T03:24:01.768Z,14.63
2018-09-05T03:25:04.991Z,13.20
2018-09-05T03:26:08.264Z,14.30
2018-09-05T03:27:11.522Z,14.40
2018-09-05T03:28:14.727Z,14.75
2018-09-05T03:29:17.909Z,14.10
2018-09-05T03:30:21.128Z,13.72
2018-09-05T03:31:24.335Z,13.83
2018-09-05T03:32:27.573Z,15.28
2018-09-05T03:33:30.729Z,14.50
2018-09-05T03:34:33.929Z,13.60
2018-09-05T03:35:37.128Z,15.18
2018-09-05T03:36:40.346Z,14.73
2018-09-05T03:37:43.503Z,15.23
2018-09-05T03:38:46.765Z,13.70
2018-09-05T03:39:50.034Z,14.05
2018-09-05T03:40:53.180Z,12.25
2018-09-05T03:41:56.360Z,12.20
2018-09-05T03:42:59.573Z,11.20
2018-09-05T03:44:02.712Z,12.65
2018-09-05T03:45:05.892Z,12.43
2018-09-05T03:46:09.094Z,12.98
2018-09-05T03:47:12.344Z,12.30
2018-09-05T03:48:15.581Z,13.30
2018-09-05T03:49:18.727Z,11.95
2018-09-05T03:50:21.933Z,13.88
2018-09-05T03:51:25.120Z,12.65
2018-09-05T03:52:28.356Z,13.00
2018-09-05T03:53:31.529Z,13.08
2018-09-05T03:54:34.789Z,13.00
2018-09-05T03:55:37.921Z,12.10
2018-09-05T03:56:41.159Z,12.20
2018-09-05T03:57:44.349Z,12.58
2018-09-05T03:58:47.499Z,11.60
2018-09-05T03:59:50.784Z,12.95
2018-09-05T04:00:53.965Z,12.55
2018-09-05T04:01:57.133Z,12.80
2018-09-05T04:03:00.850Z,12.25
2018-09-05T04:04:04.087Z,12.00
2018-09-05T04:05:07.331Z,12.78
2018-09-05T04:06:10.516Z,13.25
2018-09-05T04:07:13.689Z,12.50
2018-09-05T04:08:16.891Z,13.05
2018-09-05T04:09:20.097Z,13.05
2018-09-05T04:10:23.290Z,12.93
2018-09-05T04:11:26.496Z,11.90
2018-09-05T04:12:29.690Z,13.38
2018-09-05T04:13:32.861Z,13.08
2018-09-05T04:14:36.096Z,13.78
2018-09-05T04:15:39.243Z,13.50
2018-09-05T04:16:42.494Z,11.73
2018-09-05T04:17:45.725Z,13.78
2018-09-05T04:18:48.928Z,12.50
2018-09-05T04:19:52.187Z,13.35
2018-09-05T04:20:55.332Z,12.98
2018-09-05T04:21:58.492Z,13.60
2018-09-05T04:23:01.727Z,12.70
2018-09-05T04:24:05.095Z,11.97
2018-09-05T04:25:08.387Z,13.68
2018-09-05T04:26:11.999Z,12.88
2018-09-05T04:27:15.339Z,13.70
2018-09-05T04:28:18.515Z,13.32
2018-09-05T04:29:22.335Z,13.58
2018-09-05T04:30:26.195Z,13.00
2018-09-05T04:31:30.026Z,14.15
2018-09-05T04:32:33.332Z,12.70
2018-09-05T04:33:36.550Z,12.80
2018-09-05T04:34:39.757Z,14.33
2018-09-05T04:35:42.980Z,13.18
2018-09-05T04:36:46.112Z,13.32
2018-09-05T04:37:49.260Z,13.50
2018-09-05T04:38:52.417Z,13.95
2018-09-05T04:39:55.621Z,13.48
2018-09-05T04:40:58.813Z,12.98
2018-09-05T04:42:02.052Z,13.05
2018-09-05T04:43:05.233Z,14.05
2018-09-05T04:44:08.540Z,13.13
2018-09-05T04:45:11.784Z,12.53
2018-09-05T04:46:14.980Z,13.85
2018-09-05T04:47:18.133Z,14.28
2018-09-05T04:48:21.346Z,13.38
2018-09-05T04:49:24.544Z,14.10
2018-09-05T04:50:27.709Z,13.20
2018-09-05T04:51:31.323Z,13.68
2018-09-05T04:52:34.884Z,13.55
2018-09-05T04:53:38.034Z,14.25
2018-09-05T04:54:41.417Z,14.23
2018-09-05T04:55:44.622Z,13.93
2018-09-05T04:56:47.888Z,13.25
2018-09-05T04:57:51.067Z,14.85
2018-09-05T04:58:54.219Z,12.00
2018-09-05T04:59:57.535Z,10.82
2018-09-05T05:01:00.765Z,9.38
2018-09-05T05:02:04.006Z,10.08
2018-09-05T05:03:07.162Z,9.20
2018-09-05T05:04:10.385Z,9.03
2018-09-05T05:05:13.557Z,9.98
2018-09-05T05:06:16.756Z,9.65
2018-09-05T05:07:19.885Z,8.98
2018-09-05T05:08:23.036Z,10.80
2018-09-05T05:09:26.170Z,11.70
2018-09-05T05:10:29.317Z,11.70
2018-09-05T05:11:32.488Z,9.65
2018-09-05T05:12:35.728Z,10.40
2018-09-05T05:13:38.895Z,10.00
2018-09-05T05:14:42.053Z,11.22
2018-09-05T05:15:45.268Z,10.50
2018-09-05T05:16:48.430Z,10.25
2018-09-05T05:17:51.574Z,10.63
2018-09-05T05:18:54.753Z,11.28
2018-09-05T05:19:57.910Z,11.30
2018-09-05T05:21:01.102Z,12.30
2018-09-05T05:22:04.350Z,11.83
2018-09-05T05:23:07.501Z,11.30
2018-09-05T05:24:10.680Z,12.63
2018-09-05T05:25:13.810Z,13.22
2018-09-05T05:26:17.222Z,11.68
2018-09-05T05:27:20.419Z,12.07
2018-09-05T05:28:23.575Z,14.15
2018-09-05T05:29:26.791Z,13.50
2018-09-05T05:30:29.993Z,13.55
2018-09-05T05:31:33.139Z,12.50
2018-09-05T05:32:36.386Z,13.38
2018-09-05T05:33:39.513Z,13.98
2018-09-05T05:34:42.734Z,13.10
2018-09-05T05:35:45.880Z,13.50
2018-09-05T05:36:49.046Z,14.58
2018-09-05T05:37:52.256Z,13.50
2018-09-05T05:38:55.409Z,14.15
2018-09-05T05:40:02.096Z,14.60
2018-09-05T05:41:05.290Z,14.55
2018-09-05T05:42:08.449Z,14.75
2018-09-05T05:43:11.693Z,14.40
2018-09-05T05:44:14.907Z,13.72
2018-09-05T05:45:18.103Z,13.80
2018-09-05T05:46:21.305Z,15.18
2018-09-05T05:47:24.501Z,14.70
2018-09-05T05:48:27.698Z,14.40
2018-09-05T05:49:30.869Z,13.80
2018-09-05T05:50:34.078Z,13.80
2018-09-05T05:51:37.238Z,15.05
2018-09-05T05:52:40.388Z,14.55
2018-09-05T05:53:43.553Z,12.95
2018-09-05T05:54:46.744Z,14.10
2018-09-05T05:55:49.888Z,13.10
2018-09-05T05:56:53.107Z,12.80
2018-09-05T05:57:56.267Z,13.65
2018-09-05T05:58:59.458Z,13.90
2018-09-05T06:00:02.679Z,13.20
2018-09-05T06:01:05.883Z,14.63
2018-09-05T06:02:09.110Z,13.40
2018-09-05T06:03:12.297Z,14.50
2018-09-05T06:04:15.441Z,15.53
2018-09-05T06:05:18.608Z,14.83
2018-09-05T06:06:21.822Z,14.80
2018-09-05T06:07:24.961Z,15.40
2018-09-05T06:08:28.089Z,14.10
2018-09-05T06:09:31.261Z,15.03
2018-09-05T06:10:34.400Z,15.45
2018-09-05T06:11:37.569Z,15.43
2018-09-05T06:12:40.732Z,14.87
2018-09-05T06:13:43.898Z,15.35
2018-09-05T06:14:47.085Z,16.12
2018-09-05T06:15:50.320Z,15.90
2018-09-05T06:16:53.518Z,15.63
2018-09-05T06:17:57.135Z,15.43
2018-09-05T06:19:00.278Z,14.65
2018-09-05T06:20:03.471Z,15.23
2018-09-05T06:21:06.662Z,14.07
2018-09-05T06:22:09.892Z,15.55
2018-09-05T06:23:13.059Z,15.08
2018-09-05T06:24:16.346Z,14.80
2018-09-05T06:25:19.599Z,16.48
2018-09-05T06:26:22.799Z,15.65
2018-09-05T06:27:25.965Z,14.75
2018-09-05T06:28:29.149Z,14.15
2018-09-05T06:29:32.329Z,14.75
2018-09-05T06:30:35.642Z,16.27
2018-09-05T06:31:38.791Z,15.78
2018-09-05T06:32:41.961Z,15.05
2018-09-05T06:33:45.150Z,14.93
2018-09-05T06:34:48.329Z,15.10
2018-09-05T06:35:51.534Z,16.10
2018-09-05T06:36:54.781Z,15.40
2018-09-05T06:37:58.006Z,16.02
2018-09-05T06:39:01.237Z,15.63
2018-09-05T06:40:04.469Z,16.40
2018-09-05T06:41:07.626Z,15.35
2018-09-05T06:42:10.789Z,16.52
2018-09-05T06:43:13.974Z,16.73
2018-09-05T06:44:17.216Z,16.62
2018-09-05T06:45:20.425Z,17.05
2018-09-05T06:46:23.742Z,16.70
2018-09-05T06:47:26.934Z,16.20
2018-09-05T06:48:30.104Z,16.52
2018-09-05T06:49:33.497Z,17.80
2018-09-05T06:50:36.665Z,16.05
2018-09-05T06:51:39.820Z,16.65
2018-09-05T06:52:43.033Z,16.00
2018-09-05T06:53:46.176Z,16.77
2018-09-05T06:54:49.365Z,17.12
2018-09-05T06:55:52.566Z,16.40
2018-09-05T06:56:55.721Z,16.80
2018-09-05T06:57:59.196Z,16.77
2018-09-05T06:59:02.397Z,17.65
2018-09-05T07:00:05.766Z,17.65
2018-09-05T07:01:08.986Z,18.40
2018-09-05T07:02:12.233Z,17.20
2018-09-05T07:03:15.496Z,16.87
2018-09-05T07:04:18.709Z,17.27
2018-09-05T07:05:21.930Z,17.90
2018-09-05T07:06:25.167Z,18.82
2018-09-05T07:07:28.789Z,19.02
2018-09-05T07:08:31.952Z,18.20
2018-09-05T07:09:35.140Z,19.25
2018-09-05T07:10:38.301Z,17.55
2018-09-05T07:11:41.838Z,17.17
2018-09-05T07:12:45.144Z,17.52
2018-09-05T07:13:48.370Z,17.65
2018-09-05T07:14:51.609Z,18.55
2018-09-05T07:15:54.913Z,18.42
2018-09-05T07:16:58.055Z,16.23
2018-09-05T07:18:01.281Z,18.10
2018-09-05T07:19:05.824Z,18.23
2018-09-05T07:20:09.062Z,16.95
2018-09-05T07:21:12.374Z,18.60
2018-09-05T07:22:15.515Z,17.52
2018-09-05T07:23:18.736Z,17.60
2018-09-05T07:24:21.878Z,17.40
2018-09-05T07:25:25.037Z,17.85
2018-09-05T07:26:28.200Z,16.07
2018-09-05T07:27:31.436Z,17.55
2018-09-05T07:28:34.590Z,16.70
2018-09-05T07:29:37.784Z,17.75
2018-09-05T07:30:41.047Z,18.42
2018-09-05T07:31:44.210Z,17.52
2018-09-05T07:32:47.390Z,18.30
2018-09-05T07:33:50.598Z,17.52
2018-09-05T07:34:53.884Z,16.90
2018-09-05T07:35:57.119Z,16.37
2018-09-05T07:37:00.313Z,15.90
2018-09-05T07:38:03.500Z,15.70
2018-09-05T07:39:07.786Z,17.30
2018-09-05T07:40:11.003Z,17.77
2018-09-05T07:41:14.205Z,16.87
2018-09-05T07:42:17.352Z,17.92
2018-09-05T07:43:20.573Z,16.35
2018-09-05T07:44:23.725Z,16.25
2018-09-05T07:45:26.976Z,17.37
2018-09-05T07:46:30.160Z,16.82
2018-09-05T07:47:33.363Z,16.00
2018-09-05T07:48:36.578Z,16.73
2018-09-05T07:49:39.747Z,16.70
2018-09-05T07:50:43.036Z,16.70
2018-09-05T07:51:46.197Z,16.02
2018-09-05T07:52:49.337Z,16.82
2018-09-05T07:53:52.583Z,16.40
2018-09-05T07:54:55.820Z,14.83
2018-09-05T07:55:58.996Z,15.95
2018-09-05T07:57:02.210Z,15.70
2018-09-05T07:58:05.605Z,16.32
2018-09-05T07:59:08.891Z,16.57
2018-09-05T08:00:12.062Z,16.07
2018-09-05T08:01:15.285Z,14.47
2018-09-05T08:02:18.506Z,14.63
2018-09-05T08:03:21.751Z,14.37
2018-09-05T08:04:25.033Z,16.60
2018-09-05T08:05:28.313Z,16.00
2018-09-05T08:06:31.543Z,14.83
2018-09-05T08:07:34.726Z,15.07
2018-09-05T08:08:37.928Z,15.70
2018-09-05T08:09:41.094Z,14.67
2018-09-05T08:10:44.297Z,15.40
2018-09-05T08:11:47.573Z,14.63
2018-09-05T08:12:50.773Z,12.60
2018-09-05T08:13:53.949Z,14.77
2018-09-05T08:14:57.248Z,14.60
2018-09-05T08:16:00.426Z,14.80
2018-09-05T08:17:03.668Z,13.20
2018-09-05T08:18:07.323Z,15.00
2018-09-05T08:19:10.535Z,13.70
2018-09-05T08:20:13.756Z,14.40
2018-09-05T08:21:17.440Z,12.80
2018-09-05T08:22:20.675Z,13.50
2018-09-05T08:23:23.876Z,13.72
2018-09-05T08:24:27.185Z,12.65
2018-09-05T08:25:30.434Z,12.83
2018-09-05T08:26:33.660Z,12.00
2018-09-05T08:27:36.809Z,13.30
2018-09-05T08:28:39.984Z,12.80
2018-09-05T08:29:43.208Z,13.40
2018-09-05T08:30:46.450Z,12.97
2018-09-05T08:31:49.625Z,13.00
2018-09-05T08:32:52.846Z,12.40
2018-09-05T08:33:56.059Z,12.20
2018-09-05T08:34:59.433Z,12.33
2018-09-05T08:36:02.801Z,11.17
2018-09-05T08:37:06.039Z,12.23
2018-09-05T08:38:09.080Z,12.07
2018-09-05T08:39:13.889Z,11.23
2018-09-05T08:40:17.073Z,12.67
2018-09-05T08:41:20.437Z,11.90
2018-09-05T08:42:23.632Z,11.90
2018-09-05T08:43:26.910Z,12.20
2018-09-05T08:44:30.284Z,11.70
2018-09-05T08:45:33.474Z,12.47
2018-09-05T08:46:36.649Z,12.20
2018-09-05T08:47:39.850Z,11.83
2018-09-05T08:48:43.061Z,10.33
2018-09-05T08:49:46.189Z,10.90
2018-09-05T08:50:49.380Z,11.73
2018-09-05T08:51:52.569Z,11.90
2018-09-05T08:52:55.959Z,10.70
2018-09-05T08:53:59.028Z,10.63
2018-09-05T08:55:02.254Z,10.30
2018-09-05T08:56:05.514Z,10.87
2018-09-05T08:57:08.695Z,10.67
2018-09-05T08:58:11.869Z,9.27
2018-09-05T08:59:15.034Z,9.90
2018-09-05T09:00:18.245Z,10.67
2018-09-05T09:01:21.524Z,10.63
2018-09-05T09:02:24.739Z,9.67
2018-09-05T09:03:28.207Z,9.50
2018-09-05T09:04:31.794Z,10.00
2018-09-05T09:05:35.268Z,10.23
2018-09-05T09:06:38.744Z,9.60
2018-09-05T09:07:42.270Z,9.30
2018-09-05T09:08:45.743Z,9.30
2018-09-05T09:09:49.336Z,9.13
2018-09-05T09:10:52.811Z,9.70
2018-09-05T09:11:56.252Z,10.40
2018-09-05T09:12:59.798Z,9.47
2018-09-05T09:14:03.282Z,8.80
2018-09-05T09:15:07.007Z,9.53
2018-09-05T09:16:10.503Z,9.67
2018-09-05T09:17:14.024Z,9.70
2018-09-05T09:18:18.431Z,10.07
2018-09-05T09:19:21.891Z,9.07
2018-09-05T09:20:25.406Z,9.20
2018-09-05T09:21:28.890Z,9.60
2018-09-05T09:22:32.370Z,9.07
2018-09-05T09:23:35.806Z,9.00
2018-09-05T09:24:39.339Z,8.73
2018-09-05T09:25:42.916Z,9.37
2018-09-05T09:26:46.454Z,8.83
2018-09-05T09:27:50.002Z,7.47
2018-09-05T09:28:53.754Z,8.10
2018-09-05T09:29:56.985Z,9.10
2018-09-05T09:31:00.237Z,8.40
2018-09-05T09:32:03.738Z,8.63
2018-09-05T09:33:07.560Z,7.87
2018-09-05T09:34:11.203Z,8.43
2018-09-05T09:35:14.682Z,8.67
2018-09-05T09:36:18.270Z,7.83
2018-09-05T09:37:21.778Z,7.40
2018-09-05T09:38:25.353Z,8.77
2018-09-05T09:39:28.896Z,8.87
2018-09-05T09:40:32.381Z,8.30
2018-09-05T09:41:35.937Z,7.73
2018-09-05T09:42:39.405Z,8.00
2018-09-05T09:43:42.889Z,7.60
2018-09-05T09:44:46.428Z,7.00
2018-09-05T09:46:16.679Z,7.00
2018-09-05T09:47:20.063Z,7.50
2018-09-05T09:48:23.400Z,7.37
2018-09-05T09:49:26.728Z,8.20
2018-09-05T09:50:30.067Z,7.00
2018-09-05T09:51:33.390Z,7.53
2018-09-05T09:52:39.131Z,7.20
2018-09-05T09:53:42.446Z,7.00
2018-09-05T09:54:45.897Z,7.63
2018-09-05T09:55:49.214Z,6.83
2018-09-05T09:56:52.599Z,6.73
2018-09-05T09:57:55.918Z,6.30
2018-09-05T09:58:59.282Z,7.53
2018-09-05T10:00:02.611Z,6.53
2018-09-05T10:01:11.459Z,6.70
2018-09-05T10:02:20.215Z,7.27
2018-09-05T10:05:35.238Z,6.73
2018-09-05T10:06:41.392Z,6.57
2018-09-05T10:07:50.075Z,5.83
2018-09-05T10:08:58.658Z,5.60
2018-09-05T10:10:07.491Z,5.87
2018-09-05T10:11:14.699Z,6.83
2018-09-05T10:12:23.447Z,6.50
2018-09-05T10:13:32.249Z,4.77
2018-09-05T10:14:35.591Z,5.23
2018-09-05T10:15:44.452Z,5.70
2018-09-05T10:16:53.247Z,5.67
2018-09-05T10:18:36.199Z,5.20
2018-09-05T10:19:39.516Z,5.80
2018-09-05T10:20:42.880Z,5.20
2018-09-05T10:21:46.204Z,5.30
2018-09-05T10:22:49.671Z,5.80
2018-09-05T10:23:53.500Z,5.00
2018-09-05T10:24:57.223Z,5.33
2018-09-05T10:26:00.532Z,5.67
2018-09-05T10:27:03.839Z,5.33
2018-09-05T10:28:07.179Z,5.30
2018-09-05T10:29:10.624Z,5.37
2018-09-05T10:30:13.934Z,4.93
2018-09-05T10:31:17.230Z,5.40
2018-09-05T10:32:20.711Z,6.50
2018-09-05T10:33:24.019Z,6.03
2018-09-05T10:34:27.369Z,5.20
2018-09-05T10:35:30.662Z,5.20
2018-09-05T10:36:33.972Z,5.60
2018-09-05T10:37:37.303Z,5.80
2018-09-05T10:38:40.644Z,5.17
2018-09-05T10:39:44.027Z,5.90
2018-09-05T10:40:47.334Z,5.43
2018-09-05T10:41:50.643Z,5.37
2018-09-05T10:42:53.988Z,5.10
2018-09-05T10:43:57.315Z,5.13
2018-09-05T10:45:00.607Z,7.20
2018-09-05T10:46:03.951Z,5.60
2018-09-05T10:47:07.266Z,6.27
2018-09-05T10:48:10.964Z,5.23
2018-09-05T10:49:14.273Z,5.60
2018-09-05T10:50:17.626Z,5.70
2018-09-05T10:51:25.215Z,6.00
2018-09-05T10:52:28.542Z,5.50
2018-09-05T10:53:31.894Z,5.83
2018-09-05T10:54:35.219Z,5.83
2018-09-05T10:55:38.531Z,5.80
2018-09-05T10:56:41.827Z,6.30
2018-09-05T10:57:45.151Z,5.37
2018-09-05T10:58:48.505Z,5.50
2018-09-05T10:59:51.806Z,5.23
2018-09-05T11:00:55.126Z,5.43
2018-09-05T11:01:59.029Z,5.87
2018-09-05T11:03:02.372Z,6.53
2018-09-05T11:04:06.178Z,6.30
2018-09-05T11:05:09.489Z,6.43
2018-09-05T11:06:12.811Z,5.40
2018-09-05T11:07:16.131Z,6.43
2018-09-05T11:08:19.438Z,6.00
2018-09-05T11:09:22.791Z,5.80
2018-09-05T11:10:26.186Z,5.80
2018-09-05T11:11:29.522Z,5.87
2018-09-05T11:12:32.844Z,6.33
2018-09-05T11:13:36.182Z,6.20
2018-09-05T11:14:39.495Z,5.60
2018-09-05T11:15:42.890Z,4.93
2018-09-05T11:16:46.199Z,6.00
2018-09-05T11:17:49.526Z,6.00
2018-09-05T11:18:52.835Z,6.20
2018-09-05T11:19:56.202Z,6.00
2018-09-05T11:20:59.527Z,5.77
2018-09-05T11:22:02.839Z,5.77
2018-09-05T11:23:06.166Z,5.73
2018-09-05T11:24:09.748Z,5.93
2018-09-05T11:25:13.076Z,5.63
2018-09-05T11:26:16.388Z,5.83
2018-09-05T11:27:19.734Z,5.50
2018-09-05T11:28:23.096Z,5.97
2018-09-05T11:29:26.411Z,5.90
2018-09-05T11:30:29.750Z,5.97
2018-09-05T11:31:33.106Z,5.83
2018-09-05T11:32:42.939Z,6.13
2018-09-05T11:33:46.243Z,5.83
2018-09-05T11:34:49.543Z,5.20
2018-09-05T11:35:52.866Z,6.30
2018-09-05T11:36:56.196Z,5.50
2018-09-05T11:37:59.515Z,6.53
2018-09-05T11:39:02.860Z,5.77
2018-09-05T11:40:06.662Z,5.37
2018-09-05T11:41:09.991Z,5.57
2018-09-05T11:42:13.352Z,5.80
2018-09-05T11:43:16.683Z,5.60
2018-09-05T11:45:29.644Z,6.30
2018-09-05T11:46:32.984Z,5.67
2018-09-05T11:47:36.331Z,5.50
2018-09-05T11:48:39.643Z,5.23
2018-09-05T11:49:42.976Z,5.67
2018-09-05T11:50:46.368Z,5.77
2018-09-05T11:51:49.672Z,5.90
2018-09-05T11:52:52.979Z,6.10
2018-09-05T11:53:56.310Z,5.63
2018-09-05T11:54:59.655Z,5.80
2018-09-05T11:56:03.034Z,6.20
2018-09-05T11:57:06.394Z,6.40
2018-09-05T11:58:09.709Z,5.80
2018-09-05T11:59:13.060Z,6.40
2018-09-05T12:00:16.364Z,6.60
2018-09-05T12:01:19.662Z,6.27
2018-09-05T12:02:23.022Z,5.87
2018-09-05T12:03:26.320Z,6.00
2018-09-05T12:04:29.712Z,5.60
2018-09-05T12:05:33.014Z,7.20
2018-09-05T12:06:36.355Z,6.00
2018-09-05T12:07:39.719Z,6.10
2018-09-05T12:08:43.042Z,5.53
2018-09-05T12:09:46.384Z,5.97
2018-09-05T12:10:49.672Z,5.60
2018-09-05T12:11:52.979Z,6.00
2018-09-05T12:12:56.320Z,5.37
2018-09-05T12:13:59.650Z,6.17
2018-09-05T12:15:02.960Z,6.37
2018-09-05T12:16:06.295Z,5.53
2018-09-05T12:17:09.618Z,6.33
2018-09-05T12:18:12.901Z,5.50
2018-09-05T12:19:16.203Z,5.93
2018-09-05T12:20:19.575Z,5.47
2018-09-05T12:21:22.902Z,6.73
2018-09-05T12:22:26.252Z,5.30
2018-09-05T12:23:29.559Z,5.10
2018-09-05T12:24:32.930Z,6.13
2018-09-05T12:25:36.675Z,5.90
2018-09-05T12:26:40.031Z,5.63
2018-09-05T12:27:43.350Z,5.00
2018-09-05T12:28:46.703Z,5.40
2018-09-05T12:29:50.018Z,6.10
2018-09-05T12:30:53.357Z,5.87
2018-09-05T12:31:56.681Z,5.80
2018-09-05T12:33:00.015Z,5.40
2018-09-05T12:34:03.328Z,5.13
2018-09-05T12:35:06.648Z,5.93
2018-09-05T12:36:10.023Z,5.10
2018-09-05T12:37:13.374Z,5.20
2018-09-05T12:39:26.306Z,5.23
2018-09-05T12:40:29.647Z,5.30
2018-09-05T12:41:32.939Z,6.23
2018-09-05T12:42:36.254Z,5.17
2018-09-05T12:43:39.570Z,5.83
2018-09-05T12:44:42.913Z,5.67
2018-09-05T12:45:46.241Z,5.13
2018-09-05T12:46:49.544Z,5.67
2018-09-05T12:47:52.851Z,5.47
2018-09-05T12:48:56.164Z,5.27
2018-09-05T12:49:59.501Z,5.37
2018-09-05T12:51:02.876Z,5.10
2018-09-05T12:52:06.182Z,5.50
2018-09-05T12:53:09.810Z,5.20
2018-09-05T12:54:13.135Z,5.80
2018-09-05T12:55:16.466Z,5.13
2018-09-05T12:56:19.821Z,5.80
2018-09-05T12:57:23.143Z,6.00
2018-09-05T12:58:26.449Z,5.80
2018-09-05T12:59:29.768Z,5.37
2018-09-05T13:00:33.143Z,5.33
2018-09-05T13:01:36.457Z,4.90
2018-09-05T13:02:39.815Z,5.67
2018-09-05T13:03:43.110Z,5.50
2018-09-05T13:04:46.411Z,5.30
2018-09-05T13:05:49.731Z,5.87
2018-09-05T13:06:53.155Z,5.00
2018-09-05T13:07:56.515Z,5.30
2018-09-05T13:09:00.326Z,5.20
2018-09-05T13:10:03.664Z,5.10
2018-09-05T13:11:06.955Z,4.93
2018-09-05T13:12:10.259Z,5.07
2018-09-05T13:13:13.647Z,5.67
2018-09-05T13:14:16.930Z,5.30
2018-09-05T13:15:20.250Z,5.80
2018-09-05T13:16:23.566Z,5.43
2018-09-05T13:17:26.858Z,4.70
2018-09-05T13:18:30.203Z,5.30
2018-09-05T13:19:39.019Z,4.70
2018-09-05T13:20:42.373Z,4.57
2018-09-05T13:21:45.682Z,5.33
2018-09-05T13:22:55.839Z,4.93
2018-09-05T13:23:59.140Z,4.90
2018-09-05T13:25:02.471Z,4.60
2018-09-05T13:26:05.810Z,5.50
2018-09-05T13:27:09.155Z,4.60
2018-09-05T13:28:12.475Z,5.57
2018-09-05T13:29:15.795Z,5.20
2018-09-05T13:30:19.129Z,4.93
2018-09-05T13:31:22.438Z,4.67
2018-09-05T13:32:25.810Z,4.70
2018-09-05T13:33:29.106Z,4.50
2018-09-05T13:34:32.412Z,4.97
2018-09-05T13:35:35.731Z,5.20
2018-09-05T13:36:39.051Z,4.60
2018-09-05T13:37:42.432Z,5.63
2018-09-05T13:38:45.748Z,4.97
2018-09-05T13:39:49.078Z,5.03
2018-09-05T13:40:52.386Z,5.90
2018-09-05T13:41:55.690Z,5.40
2018-09-05T13:42:59.048Z,4.33
2018-09-05T13:44:02.343Z,4.67
2018-09-05T13:45:05.676Z,5.70
2018-09-05T13:46:09.002Z,4.50
2018-09-05T13:47:12.392Z,5.30
2018-09-05T13:48:15.751Z,5.03
2018-09-05T13:49:19.451Z,5.57
2018-09-05T13:50:22.767Z,4.97
2018-09-05T13:51:26.067Z,5.30
2018-09-05T13:52:29.403Z,4.97